sensor_id;sensor_type;location;lat;lon;timestamp;pressure;altitude;pressure_sealevel;temperature;humidity
2675;BME280;1347;42.122;24.746;2023-06-14T00:02:07;99152.44;;;21.21;100.00
2675;BME280;1347;42.122;24.746;2023-06-14T00:04:34;99148.53;;;21.19;100.00
2675;BME280;1347;42.122;24.746;2023-06-14T00:07:03;99147.41;;;21.16;100.00
2675;BME280;1347;42.122;24.746;2023-06-14T00:09:33;99158.88;;;21.18;100.00
2675;BME280;1347;42.122;24.746;2023-06-14T00:12:00;99149.53;;;21.12;100.00
2675;BME280;1347;42.122;24.746;2023-06-14T00:14:27;99144.28;;;21.14;100.00
2675;BME280;1347;42.122;24.746;2023-06-14T00:16:54;99148.63;;;21.15;100.00
2675;BME280;1347;42.122;24.746;2023-06-14T00:19:25;99150.63;;;21.15;100.00
2675;BME280;1347;42.122;24.746;2023-06-14T00:21:52;99156.34;;;20.99;100.00
2675;BME280;1347;42.122;24.746;2023-06-14T00:24:19;99148.06;;;21.08;100.00
2675;BME280;1347;42.122;24.746;2023-06-14T00:26:46;99146.19;;;21.05;100.00
2675;BME280;1347;42.122;24.746;2023-06-14T00:29:13;99139.97;;;21.01;100.00
2675;BME280;1347;42.122;24.746;2023-06-14T00:31:40;99148.53;;;21.06;100.00
2675;BME280;1347;42.122;24.746;2023-06-14T00:34:07;99142.97;;;21.06;100.00
2675;BME280;1347;42.122;24.746;2023-06-14T00:36:36;99142.84;;;20.97;100.00
2675;BME280;1347;42.122;24.746;2023-06-14T00:39:03;99139.44;;;20.93;100.00
2675;BME280;1347;42.122;24.746;2023-06-14T00:41:30;99139.78;;;20.82;100.00
2675;BME280;1347;42.122;24.746;2023-06-14T00:43:57;99134.97;;;20.83;100.00
2675;BME280;1347;42.122;24.746;2023-06-14T00:46:25;99138.59;;;20.45;100.00
2675;BME280;1347;42.122;24.746;2023-06-14T00:48:52;99123.84;;;20.32;100.00
2675;BME280;1347;42.122;24.746;2023-06-14T00:51:20;99126.66;;;20.45;100.00
2675;BME280;1347;42.122;24.746;2023-06-14T00:53:48;99131.44;;;20.44;100.00
2675;BME280;1347;42.122;24.746;2023-06-14T00:56:15;99122.53;;;20.49;100.00
2675;BME280;1347;42.122;24.746;2023-06-14T00:58:44;99114.84;;;20.41;100.00
2675;BME280;1347;42.122;24.746;2023-06-14T01:01:11;99131.13;;;20.42;100.00
2675;BME280;1347;42.122;24.746;2023-06-14T01:03:39;99120.53;;;20.50;100.00
2675;BME280;1347;42.122;24.746;2023-06-14T01:06:30;99114.41;;;20.55;100.00
2675;BME280;1347;42.122;24.746;2023-06-14T01:09:09;99118.97;;;20.62;100.00
2675;BME280;1347;42.122;24.746;2023-06-14T01:11:43;99123.84;;;20.57;100.00
2675;BME280;1347;42.122;24.746;2023-06-14T01:14:14;99111.72;;;20.64;100.00
2675;BME280;1347;42.122;24.746;2023-06-14T01:16:43;99117.84;;;20.72;100.00
2675;BME280;1347;42.122;24.746;2023-06-14T01:19:12;99116.38;;;20.80;100.00
2675;BME280;1347;42.122;24.746;2023-06-14T01:21:39;99114.94;;;20.75;100.00
2675;BME280;1347;42.122;24.746;2023-06-14T01:24:09;99116.59;;;20.73;100.00
2675;BME280;1347;42.122;24.746;2023-06-14T01:26:36;99115.84;;;20.72;100.00
2675;BME280;1347;42.122;24.746;2023-06-14T01:29:11;99117.59;;;20.66;100.00
2675;BME280;1347;42.122;24.746;2023-06-14T01:31:43;99120.19;;;20.61;100.00
2675;BME280;1347;42.122;24.746;2023-06-14T01:34:11;99117.06;;;20.71;100.00
2675;BME280;1347;42.122;24.746;2023-06-14T01:36:40;99121.41;;;20.72;100.00
2675;BME280;1347;42.122;24.746;2023-06-14T01:39:10;99122.19;;;20.73;100.00
2675;BME280;1347;42.122;24.746;2023-06-14T01:41:38;99121.59;;;20.78;100.00
2675;BME280;1347;42.122;24.746;2023-06-14T01:44:06;99110.59;;;20.74;100.00
2675;BME280;1347;42.122;24.746;2023-06-14T01:46:33;99121.50;;;20.69;100.00
2675;BME280;1347;42.122;24.746;2023-06-14T01:49:00;99109.91;;;20.70;100.00
2675;BME280;1347;42.122;24.746;2023-06-14T01:51:27;99110.25;;;20.72;100.00
2675;BME280;1347;42.122;24.746;2023-06-14T01:53:54;99120.28;;;20.70;100.00
2675;BME280;1347;42.122;24.746;2023-06-14T01:56:24;99113.84;;;20.60;100.00
2675;BME280;1347;42.122;24.746;2023-06-14T01:58:53;99115.72;;;20.63;100.00
2675;BME280;1347;42.122;24.746;2023-06-14T02:01:23;99116.63;;;20.60;100.00
2675;BME280;1347;42.122;24.746;2023-06-14T02:03:50;99113.84;;;20.60;100.00
2675;BME280;1347;42.122;24.746;2023-06-14T02:06:17;99124.19;;;20.60;100.00
2675;BME280;1347;42.122;24.746;2023-06-14T02:08:43;99118.31;;;20.45;100.00
2675;BME280;1347;42.122;24.746;2023-06-14T02:11:10;99123.41;;;20.46;100.00
2675;BME280;1347;42.122;24.746;2023-06-14T02:13:39;99120.97;;;20.48;100.00
2675;BME280;1347;42.122;24.746;2023-06-14T02:16:05;99120.19;;;20.48;100.00
2675;BME280;1347;42.122;24.746;2023-06-14T02:18:32;99128.31;;;20.42;100.00
2675;BME280;1347;42.122;24.746;2023-06-14T02:20:59;99123.97;;;20.41;100.00
2675;BME280;1347;42.122;24.746;2023-06-14T02:23:26;99127.66;;;20.38;100.00
2675;BME280;1347;42.122;24.746;2023-06-14T02:25:53;99125.31;;;20.37;100.00
2675;BME280;1347;42.122;24.746;2023-06-14T02:28:20;99123.38;;;20.21;100.00
2675;BME280;1347;42.122;24.746;2023-06-14T02:30:49;99118.34;;;20.16;100.00
2675;BME280;1347;42.122;24.746;2023-06-14T02:33:16;99128.50;;;20.23;100.00
2675;BME280;1347;42.122;24.746;2023-06-14T02:35:43;99127.50;;;20.29;100.00
2675;BME280;1347;42.122;24.746;2023-06-14T02:38:10;99133.75;;;20.33;100.00
2675;BME280;1347;42.122;24.746;2023-06-14T02:40:37;99128.50;;;20.23;100.00
2675;BME280;1347;42.122;24.746;2023-06-14T02:43:04;99130.63;;;20.31;100.00
2675;BME280;1347;42.122;24.746;2023-06-14T02:45:30;99128.94;;;20.21;100.00
2675;BME280;1347;42.122;24.746;2023-06-14T02:47:59;99124.16;;;20.21;100.00
2675;BME280;1347;42.122;24.746;2023-06-14T02:50:26;99133.94;;;20.26;100.00
2675;BME280;1347;42.122;24.746;2023-06-14T02:52:53;99141.41;;;20.16;100.00
2675;BME280;1347;42.122;24.746;2023-06-14T02:55:21;99138.31;;;20.14;100.00
2675;BME280;1347;42.122;24.746;2023-06-14T02:57:48;99138.94;;;20.06;100.00
2675;BME280;1347;42.122;24.746;2023-06-14T03:00:15;99145.63;;;20.08;100.00
2675;BME280;1347;42.122;24.746;2023-06-14T03:02:42;99145.06;;;20.01;100.00
2675;BME280;1347;42.122;24.746;2023-06-14T03:05:11;99148.19;;;20.03;100.00
2675;BME280;1347;42.122;24.746;2023-06-14T03:07:38;99150.63;;;20.01;100.00
2675;BME280;1347;42.122;24.746;2023-06-14T03:10:07;99148.06;;;19.94;100.00
2675;BME280;1347;42.122;24.746;2023-06-14T03:12:35;99154.72;;;19.96;100.00
2675;BME280;1347;42.122;24.746;2023-06-14T03:15:02;99162.63;;;19.98;100.00
2675;BME280;1347;42.122;24.746;2023-06-14T03:17:29;99161.19;;;20.06;100.00
2675;BME280;1347;42.122;24.746;2023-06-14T03:19:59;99165.06;;;19.96;100.00
2675;BME280;1347;42.122;24.746;2023-06-14T03:22:27;99161.06;;;19.97;100.00
2675;BME280;1347;42.122;24.746;2023-06-14T03:24:54;99166.19;;;19.98;100.00
2675;BME280;1347;42.122;24.746;2023-06-14T03:27:21;99159.00;;;20.13;100.00
2675;BME280;1347;42.122;24.746;2023-06-14T03:29:48;99163.66;;;20.16;100.00
2675;BME280;1347;42.122;24.746;2023-06-14T03:32:15;99173.03;;;20.23;100.00
2675;BME280;1347;42.122;24.746;2023-06-14T03:34:42;99172.03;;;20.29;100.00
2675;BME280;1347;42.122;24.746;2023-06-14T03:37:10;99177.06;;;20.34;100.00
2675;BME280;1347;42.122;24.746;2023-06-14T03:39:38;99178.44;;;20.42;100.00
2675;BME280;1347;42.122;24.746;2023-06-14T03:42:12;99181.22;;;20.42;100.00
2675;BME280;1347;42.122;24.746;2023-06-14T03:44:39;99179.56;;;20.45;100.00
2675;BME280;1347;42.122;24.746;2023-06-14T03:47:06;99184.03;;;20.55;100.00
2675;BME280;1347;42.122;24.746;2023-06-14T03:49:33;99192.25;;;20.58;100.00
2675;BME280;1347;42.122;24.746;2023-06-14T03:52:00;99194.25;;;20.58;100.00
2675;BME280;1347;42.122;24.746;2023-06-14T03:54:27;99195.72;;;20.63;100.00
2675;BME280;1347;42.122;24.746;2023-06-14T03:56:59;99200.59;;;20.58;100.00
2675;BME280;1347;42.122;24.746;2023-06-14T03:59:26;99202.50;;;20.49;100.00
2675;BME280;1347;42.122;24.746;2023-06-14T04:01:53;99198.72;;;20.43;100.00
2675;BME280;1347;42.122;24.746;2023-06-14T04:04:20;99205.97;;;20.53;100.00
2675;BME280;1347;42.122;24.746;2023-06-14T04:06:54;99197.59;;;20.53;100.00
2675;BME280;1347;42.122;24.746;2023-06-14T04:09:26;99200.94;;;20.61;100.00
2675;BME280;1347;42.122;24.746;2023-06-14T04:12:07;99206.06;;;20.49;100.00
2675;BME280;1347;42.122;24.746;2023-06-14T04:14:38;99205.28;;;20.49;100.00
2675;BME280;1347;42.122;24.746;2023-06-14T04:17:06;99208.38;;;20.38;100.00
2675;BME280;1347;42.122;24.746;2023-06-14T04:19:36;99207.94;;;20.40;100.00
2675;BME280;1347;42.122;24.746;2023-06-14T04:48:53;99218.56;;;20.83;100.00
2675;BME280;1347;42.122;24.746;2023-06-14T04:51:19;99225.22;;;20.98;100.00
2675;BME280;1347;42.122;24.746;2023-06-14T04:53:55;99223.56;;;21.13;100.00
2675;BME280;1347;42.122;24.746;2023-06-14T04:56:23;99227.69;;;21.34;100.00
2675;BME280;1347;42.122;24.746;2023-06-14T04:58:50;99224.09;;;21.46;100.00
2675;BME280;1347;42.122;24.746;2023-06-14T05:01:18;99233.31;;;21.56;100.00
2675;BME280;1347;42.122;24.746;2023-06-14T05:03:45;99230.03;;;21.70;100.00
2675;BME280;1347;42.122;24.746;2023-06-14T05:06:16;99235.38;;;21.77;100.00
2675;BME280;1347;42.122;24.746;2023-06-14T05:08:43;99235.63;;;21.92;100.00
2675;BME280;1347;42.122;24.746;2023-06-14T05:11:10;99242.75;;;22.06;100.00
2675;BME280;1347;42.122;24.746;2023-06-14T05:13:37;99239.56;;;22.16;100.00
2675;BME280;1347;42.122;24.746;2023-06-14T05:16:05;99241.13;;;22.17;100.00
2675;BME280;1347;42.122;24.746;2023-06-14T05:18:32;99237.78;;;22.31;100.00
2675;BME280;1347;42.122;24.746;2023-06-14T05:21:00;99244.38;;;22.37;100.00
2675;BME280;1347;42.122;24.746;2023-06-14T05:23:29;99252.53;;;22.54;100.00
2675;BME280;1347;42.122;24.746;2023-06-14T05:25:55;99251.16;;;22.58;100.00
2675;BME280;1347;42.122;24.746;2023-06-14T05:28:23;99259.53;;;22.58;100.00
2675;BME280;1347;42.122;24.746;2023-06-14T05:30:50;99261.72;;;22.63;99.74
2675;BME280;1347;42.122;24.746;2023-06-14T05:33:17;99253.63;;;22.78;99.23
2675;BME280;1347;42.122;24.746;2023-06-14T05:35:44;99266.06;;;22.86;98.63
2675;BME280;1347;42.122;24.746;2023-06-14T05:38:12;99263.16;;;22.90;97.76
2675;BME280;1347;42.122;24.746;2023-06-14T05:40:40;99264.69;;;22.91;97.18
2675;BME280;1347;42.122;24.746;2023-06-14T05:43:07;99264.59;;;23.03;96.55
2675;BME280;1347;42.122;24.746;2023-06-14T05:45:34;99271.94;;;23.10;96.49
2675;BME280;1347;42.122;24.746;2023-06-14T05:48:01;99268.81;;;23.08;95.18
2675;BME280;1347;42.122;24.746;2023-06-14T05:50:27;99273.66;;;23.17;95.66
2675;BME280;1347;42.122;24.746;2023-06-14T05:52:55;99282.94;;;23.13;95.14
2675;BME280;1347;42.122;24.746;2023-06-14T05:55:21;99286.22;;;23.21;95.55
2675;BME280;1347;42.122;24.746;2023-06-14T05:57:50;99284.03;;;23.07;94.86
2675;BME280;1347;42.122;24.746;2023-06-14T06:00:17;99288.53;;;23.13;95.42
2675;BME280;1347;42.122;24.746;2023-06-14T06:02:45;99283.94;;;23.29;94.59
2675;BME280;1347;42.122;24.746;2023-06-14T06:05:13;99289.66;;;23.16;93.56
2675;BME280;1347;42.122;24.746;2023-06-14T06:07:41;99283.66;;;22.96;94.57
2675;BME280;1347;42.122;24.746;2023-06-14T06:10:10;99279.81;;;23.02;94.99
2675;BME280;1347;42.122;24.746;2023-06-14T06:12:37;99282.03;;;23.17;94.42
2675;BME280;1347;42.122;24.746;2023-06-14T06:15:06;99284.09;;;23.34;93.75
2675;BME280;1347;42.122;24.746;2023-06-14T06:17:33;99281.50;;;23.40;92.34
2675;BME280;1347;42.122;24.746;2023-06-14T06:20:00;99285.28;;;23.64;91.92
2675;BME280;1347;42.122;24.746;2023-06-14T06:22:27;99289.97;;;23.67;90.99
2675;BME280;1347;42.122;24.746;2023-06-14T06:24:54;99286.25;;;23.70;91.37
2675;BME280;1347;42.122;24.746;2023-06-14T06:27:21;99286.59;;;23.91;90.30
2675;BME280;1347;42.122;24.746;2023-06-14T06:29:48;99287.81;;;24.17;89.35
2675;BME280;1347;42.122;24.746;2023-06-14T06:32:19;99288.28;;;24.15;88.13
2675;BME280;1347;42.122;24.746;2023-06-14T06:34:46;99287.97;;;24.13;87.34
2675;BME280;1347;42.122;24.746;2023-06-14T06:37:13;99296.97;;;24.72;86.63
2675;BME280;1347;42.122;24.746;2023-06-14T06:39:40;99293.44;;;25.14;85.76
2675;BME280;1347;42.122;24.746;2023-06-14T06:42:07;99292.81;;;25.43;84.79
2675;BME280;1347;42.122;24.746;2023-06-14T06:44:38;99301.09;;;25.70;83.07
2675;BME280;1347;42.122;24.746;2023-06-14T06:47:05;99297.75;;;25.81;81.01
2675;BME280;1347;42.122;24.746;2023-06-14T06:49:34;99296.47;;;26.06;79.08
2675;BME280;1347;42.122;24.746;2023-06-14T06:52:05;99300.00;;;26.15;78.09
2675;BME280;1347;42.122;24.746;2023-06-14T06:54:33;99309.72;;;26.29;77.76
2675;BME280;1347;42.122;24.746;2023-06-14T06:57:00;99301.09;;;25.94;77.71
2675;BME280;1347;42.122;24.746;2023-06-14T06:59:27;99309.13;;;26.25;77.57
2675;BME280;1347;42.122;24.746;2023-06-14T07:01:54;99309.13;;;26.25;77.55
2675;BME280;1347;42.122;24.746;2023-06-14T07:04:21;99301.78;;;26.42;77.23
2675;BME280;1347;42.122;24.746;2023-06-14T07:06:50;99302.78;;;26.15;77.76
2675;BME280;1347;42.122;24.746;2023-06-14T07:09:17;99299.19;;;26.68;75.87
2675;BME280;1347;42.122;24.746;2023-06-14T07:11:46;99303.97;;;27.06;74.64
2675;BME280;1347;42.122;24.746;2023-06-14T07:14:13;99303.53;;;27.28;72.96
2675;BME280;1347;42.122;24.746;2023-06-14T07:16:40;99305.59;;;27.13;72.31
2675;BME280;1347;42.122;24.746;2023-06-14T07:19:08;99299.66;;;26.81;74.52
2675;BME280;1347;42.122;24.746;2023-06-14T07:21:35;99297.72;;;26.05;75.96
2675;BME280;1347;42.122;24.746;2023-06-14T07:24:05;99299.00;;;26.18;75.62
2675;BME280;1347;42.122;24.746;2023-06-14T07:26:33;99290.75;;;26.97;74.32
2675;BME280;1347;42.122;24.746;2023-06-14T07:29:00;99290.97;;;27.43;72.23
2675;BME280;1347;42.122;24.746;2023-06-14T07:31:27;99285.72;;;27.71;71.95
2675;BME280;1347;42.122;24.746;2023-06-14T07:33:54;99285.97;;;27.88;71.10
2675;BME280;1347;42.122;24.746;2023-06-14T07:36:23;99284.88;;;28.52;69.27
2675;BME280;1347;42.122;24.746;2023-06-14T07:38:52;99293.94;;;28.62;67.17
2675;BME280;1347;42.122;24.746;2023-06-14T07:41:20;99297.41;;;29.03;66.77
2675;BME280;1347;42.122;24.746;2023-06-14T07:43:47;99293.88;;;29.08;65.20
2675;BME280;1347;42.122;24.746;2023-06-14T07:46:14;99285.94;;;28.29;67.20
2675;BME280;1347;42.122;24.746;2023-06-14T07:48:41;99292.38;;;28.61;67.19
2675;BME280;1347;42.122;24.746;2023-06-14T07:51:08;99285.25;;;28.91;67.67
2675;BME280;1347;42.122;24.746;2023-06-14T07:53:35;99295.50;;;28.88;68.30
2675;BME280;1347;42.122;24.746;2023-06-14T07:56:02;99293.91;;;28.82;67.61
2675;BME280;1347;42.122;24.746;2023-06-14T07:58:32;99284.66;;;28.09;69.88
2675;BME280;1347;42.122;24.746;2023-06-14T08:00:59;99291.34;;;27.92;71.31
2675;BME280;1347;42.122;24.746;2023-06-14T08:03:28;99290.28;;;27.89;71.24
2675;BME280;1347;42.122;24.746;2023-06-14T08:05:56;99290.66;;;27.76;71.85
2675;BME280;1347;42.122;24.746;2023-06-14T08:08:22;99289.81;;;27.70;72.46
2675;BME280;1347;42.122;24.746;2023-06-14T08:10:50;99292.72;;;27.76;71.80
2675;BME280;1347;42.122;24.746;2023-06-14T08:13:17;99298.25;;;28.11;70.87
2675;BME280;1347;42.122;24.746;2023-06-14T08:15:45;99295.09;;;27.83;70.55
2675;BME280;1347;42.122;24.746;2023-06-14T08:18:12;99302.91;;;28.34;69.79
2675;BME280;1347;42.122;24.746;2023-06-14T08:20:39;99305.50;;;28.38;68.11
2675;BME280;1347;42.122;24.746;2023-06-14T08:23:06;99311.31;;;28.54;68.03
2675;BME280;1347;42.122;24.746;2023-06-14T08:25:34;99316.22;;;28.80;67.31
2675;BME280;1347;42.122;24.746;2023-06-14T08:28:01;99317.81;;;29.18;65.71
2675;BME280;1347;42.122;24.746;2023-06-14T08:30:28;99310.56;;;28.80;65.25
2675;BME280;1347;42.122;24.746;2023-06-14T08:32:57;99314.91;;;28.55;67.67
2675;BME280;1347;42.122;24.746;2023-06-14T08:35:23;99320.59;;;28.61;67.63
2675;BME280;1347;42.122;24.746;2023-06-14T08:37:50;99327.00;;;29.13;66.82
2675;BME280;1347;42.122;24.746;2023-06-14T08:40:19;99323.66;;;29.14;65.06
2675;BME280;1347;42.122;24.746;2023-06-14T08:42:52;99331.72;;;28.70;65.92
2675;BME280;1347;42.122;24.746;2023-06-14T08:45:19;99328.03;;;28.84;65.43
2675;BME280;1347;42.122;24.746;2023-06-14T08:47:47;99332.88;;;28.58;65.78
2675;BME280;1347;42.122;24.746;2023-06-14T08:50:21;99326.59;;;28.94;65.38
2675;BME280;1347;42.122;24.746;2023-06-14T08:52:53;99333.78;;;29.26;64.07
2675;BME280;1347;42.122;24.746;2023-06-14T08:55:23;99328.59;;;29.51;64.66
2675;BME280;1347;42.122;24.746;2023-06-14T08:57:54;99329.97;;;29.67;63.09
2675;BME280;1347;42.122;24.746;2023-06-14T09:00:22;99329.75;;;29.76;62.82
2675;BME280;1347;42.122;24.746;2023-06-14T09:02:49;99325.78;;;29.51;62.05
2675;BME280;1347;42.122;24.746;2023-06-14T09:05:23;99326.97;;;29.81;61.45
2675;BME280;1347;42.122;24.746;2023-06-14T09:07:50;99329.19;;;30.14;60.46
2675;BME280;1347;42.122;24.746;2023-06-14T09:10:18;99326.47;;;30.48;59.67
2675;BME280;1347;42.122;24.746;2023-06-14T09:12:45;99321.09;;;30.55;59.03
2675;BME280;1347;42.122;24.746;2023-06-14T09:15:12;99319.53;;;30.49;59.38
2675;BME280;1347;42.122;24.746;2023-06-14T09:17:39;99314.63;;;29.84;60.86
2675;BME280;1347;42.122;24.746;2023-06-14T09:20:08;99312.28;;;29.72;62.21
2675;BME280;1347;42.122;24.746;2023-06-14T09:22:37;99308.97;;;29.05;62.81
2675;BME280;1347;42.122;24.746;2023-06-14T09:25:05;99309.03;;;29.10;63.21
2675;BME280;1347;42.122;24.746;2023-06-14T09:27:33;99305.06;;;29.34;62.83
2675;BME280;1347;42.122;24.746;2023-06-14T09:30:01;99307.97;;;29.08;62.61
2675;BME280;1347;42.122;24.746;2023-06-14T09:32:28;99307.72;;;29.11;62.81
2675;BME280;1347;42.122;24.746;2023-06-14T09:34:56;99307.78;;;29.17;63.82
2675;BME280;1347;42.122;24.746;2023-06-14T09:37:27;99290.41;;;28.41;64.74
2675;BME280;1347;42.122;24.746;2023-06-14T09:39:57;99291.13;;;28.36;65.26
2675;BME280;1347;42.122;24.746;2023-06-14T09:42:25;99290.50;;;28.26;66.95
2675;BME280;1347;42.122;24.746;2023-06-14T09:44:54;99298.25;;;28.11;66.49
2675;BME280;1347;42.122;24.746;2023-06-14T09:47:22;99288.22;;;27.14;69.11
2675;BME280;1347;42.122;24.746;2023-06-14T09:49:50;99289.59;;;26.60;70.53
2675;BME280;1347;42.122;24.746;2023-06-14T09:52:18;99293.09;;;26.84;71.04
2675;BME280;1347;42.122;24.746;2023-06-14T09:54:46;99290.56;;;26.86;70.70
2675;BME280;1347;42.122;24.746;2023-06-14T09:57:17;99286.69;;;26.84;73.22
2675;BME280;1347;42.122;24.746;2023-06-14T09:59:47;99284.50;;;25.96;78.24
2675;BME280;1347;42.122;24.746;2023-06-14T10:02:22;99289.31;;;26.05;81.78
2675;BME280;1347;42.122;24.746;2023-06-14T10:04:58;99291.22;;;25.98;90.66
2675;BME280;1347;42.122;24.746;2023-06-14T10:07:26;99290.47;;;25.41;91.90
2675;BME280;1347;42.122;24.746;2023-06-14T10:09:57;99284.78;;;24.93;99.90
2675;BME280;1347;42.122;24.746;2023-06-14T10:12:25;99276.34;;;24.84;98.50
2675;BME280;1347;42.122;24.746;2023-06-14T10:14:53;99288.03;;;25.34;95.60
2675;BME280;1347;42.122;24.746;2023-06-14T10:17:30;99285.38;;;25.63;94.04
2675;BME280;1347;42.122;24.746;2023-06-14T10:20:10;99289.31;;;25.81;92.06
2675;BME280;1347;42.122;24.746;2023-06-14T10:22:45;99284.72;;;26.07;86.22
2675;BME280;1347;42.122;24.746;2023-06-14T10:25:26;99276.28;;;26.31;82.56
2675;BME280;1347;42.122;24.746;2023-06-14T10:28:02;99278.53;;;26.42;79.56
2675;BME280;1347;42.122;24.746;2023-06-14T10:30:29;99279.97;;;26.81;78.71
2675;BME280;1347;42.122;24.746;2023-06-14T10:33:05;99277.00;;;27.34;75.18
2675;BME280;1347;42.122;24.746;2023-06-14T10:35:33;99270.97;;;26.77;75.65
2675;BME280;1347;42.122;24.746;2023-06-14T10:38:09;99266.38;;;27.09;75.71
2675;BME280;1347;42.122;24.746;2023-06-14T10:40:36;99270.63;;;27.19;76.02
2675;BME280;1347;42.122;24.746;2023-06-14T10:43:22;99268.56;;;27.34;75.58
2675;BME280;1347;42.122;24.746;2023-06-14T10:46:12;99272.13;;;26.41;79.11
2675;BME280;1347;42.122;24.746;2023-06-14T10:48:40;99275.34;;;26.34;79.11
2675;BME280;1347;42.122;24.746;2023-06-14T10:51:15;99267.75;;;27.14;77.01
2675;BME280;1347;42.122;24.746;2023-06-14T10:53:45;99268.13;;;27.56;72.68
2675;BME280;1347;42.122;24.746;2023-06-14T10:56:23;99257.94;;;28.51;70.95
2675;BME280;1347;42.122;24.746;2023-06-14T10:58:53;99266.13;;;28.75;69.20
2675;BME280;1347;42.122;24.746;2023-06-14T11:01:32;99270.50;;;28.04;nan
2675;BME280;1347;42.122;24.746;2023-06-14T11:04:07;99257.16;;;27.43;72.04
2675;BME280;1347;42.122;24.746;2023-06-14T11:06:45;99248.81;;;27.14;71.23
2675;BME280;1347;42.122;24.746;2023-06-14T11:09:45;99252.69;;;27.92;68.49
2675;BME280;1347;42.122;24.746;2023-06-14T11:12:17;99257.28;;;27.69;68.14
2675;BME280;1347;42.122;24.746;2023-06-14T11:14:48;99257.41;;;27.80;68.44
2675;BME280;1347;42.122;24.746;2023-06-14T11:17:16;99252.75;;;28.18;67.47
2675;BME280;1347;42.122;24.746;2023-06-14T11:19:43;99250.56;;;28.28;66.64
2675;BME280;1347;42.122;24.746;2023-06-14T11:22:10;99254.56;;;29.04;64.62
2675;BME280;1347;42.122;24.746;2023-06-14T11:24:37;99250.63;;;28.90;64.45
2675;BME280;1347;42.122;24.746;2023-06-14T11:27:05;99245.91;;;29.56;63.06
2675;BME280;1347;42.122;24.746;2023-06-14T11:29:32;99241.56;;;29.55;62.07
2675;BME280;1347;42.122;24.746;2023-06-14T11:32:00;99239.69;;;29.41;62.50
2675;BME280;1347;42.122;24.746;2023-06-14T11:34:27;99251.44;;;29.87;60.37
2675;BME280;1347;42.122;24.746;2023-06-14T11:36:54;99245.63;;;30.02;59.52
2675;BME280;1347;42.122;24.746;2023-06-14T11:39:24;99238.00;;;29.60;61.26
2675;BME280;1347;42.122;24.746;2023-06-14T11:41:51;99234.44;;;29.71;61.13
2675;BME280;1347;42.122;24.746;2023-06-14T11:44:18;99231.06;;;30.43;59.73
2675;BME280;1347;42.122;24.746;2023-06-14T11:46:45;99239.09;;;29.85;60.67
2675;BME280;1347;42.122;24.746;2023-06-14T11:49:13;99230.78;;;29.59;61.52
2675;BME280;1347;42.122;24.746;2023-06-14T11:51:42;99225.97;;;29.71;60.57
2675;BME280;1347;42.122;24.746;2023-06-14T11:54:10;99226.94;;;30.32;59.80
2675;BME280;1347;42.122;24.746;2023-06-14T11:56:37;99226.34;;;30.00;58.46
2675;BME280;1347;42.122;24.746;2023-06-14T11:59:06;99214.63;;;30.63;59.02
2675;BME280;1347;42.122;24.746;2023-06-14T12:01:36;99216.38;;;30.33;59.12
2675;BME280;1347;42.122;24.746;2023-06-14T12:04:03;99219.34;;;29.90;61.07
2675;BME280;1347;42.122;24.746;2023-06-14T12:06:32;99213.53;;;30.22;59.01
2675;BME280;1347;42.122;24.746;2023-06-14T12:09:03;99217.34;;;30.13;59.92
2675;BME280;1347;42.122;24.746;2023-06-14T12:11:33;99213.38;;;29.23;61.65
2675;BME280;1347;42.122;24.746;2023-06-14T12:14:00;99217.34;;;29.96;60.41
2675;BME280;1347;42.122;24.746;2023-06-14T12:16:30;99211.28;;;30.59;59.25
2675;BME280;1347;42.122;24.746;2023-06-14T12:19:00;99205.03;;;30.16;59.89
2675;BME280;1347;42.122;24.746;2023-06-14T12:21:28;99201.34;;;31.50;58.04
2675;BME280;1347;42.122;24.746;2023-06-14T12:23:57;99203.75;;;31.23;56.37
2675;BME280;1347;42.122;24.746;2023-06-14T12:26:24;99191.34;;;31.43;56.57
2675;BME280;1347;42.122;24.746;2023-06-14T12:28:52;99193.47;;;32.66;53.37
2675;BME280;1347;42.122;24.746;2023-06-14T12:31:19;99188.13;;;32.57;53.15
2675;BME280;1347;42.122;24.746;2023-06-14T12:33:46;99183.06;;;32.03;53.85
2675;BME280;1347;42.122;24.746;2023-06-14T12:36:14;99174.91;;;31.88;53.47
2675;BME280;1347;42.122;24.746;2023-06-14T12:38:42;99179.34;;;30.25;53.87
2675;BME280;1347;42.122;24.746;2023-06-14T12:41:10;99179.31;;;29.97;55.85
2675;BME280;1347;42.122;24.746;2023-06-14T12:43:39;99170.56;;;29.95;56.48
2675;BME280;1347;42.122;24.746;2023-06-14T12:46:06;99168.59;;;29.48;57.77
2675;BME280;1347;42.122;24.746;2023-06-14T12:48:32;99160.72;;;29.69;56.92
2675;BME280;1347;42.122;24.746;2023-06-14T12:50:59;99161.56;;;31.08;53.14
2675;BME280;1347;42.122;24.746;2023-06-14T12:53:26;99159.50;;;31.09;53.42
2675;BME280;1347;42.122;24.746;2023-06-14T12:55:53;99152.88;;;33.25;48.93
2675;BME280;1347;42.122;24.746;2023-06-14T12:58:21;99148.25;;;32.43;50.38
2675;BME280;1347;42.122;24.746;2023-06-14T13:00:49;99156.94;;;32.81;50.19
2675;BME280;1347;42.122;24.746;2023-06-14T13:03:16;99156.13;;;33.78;46.77
2675;BME280;1347;42.122;24.746;2023-06-14T13:05:43;99162.09;;;33.93;45.83
2675;BME280;1347;42.122;24.746;2023-06-14T13:08:10;99155.50;;;32.03;48.98
2675;BME280;1347;42.122;24.746;2023-06-14T13:10:37;99147.94;;;32.17;48.96
2675;BME280;1347;42.122;24.746;2023-06-14T13:13:04;99152.97;;;31.42;51.53
2675;BME280;1347;42.122;24.746;2023-06-14T13:15:34;99157.31;;;32.01;50.86
2675;BME280;1347;42.122;24.746;2023-06-14T13:18:01;99159.09;;;32.04;50.25
2675;BME280;1347;42.122;24.746;2023-06-14T13:20:28;99149.47;;;31.02;52.08
2675;BME280;1347;42.122;24.746;2023-06-14T13:22:55;99151.78;;;31.09;51.88
2675;BME280;1347;42.122;24.746;2023-06-14T13:25:22;99150.41;;;31.38;51.87
2675;BME280;1347;42.122;24.746;2023-06-14T13:27:49;99143.22;;;31.32;52.42
2675;BME280;1347;42.122;24.746;2023-06-14T13:30:16;99133.75;;;31.18;51.85
2675;BME280;1347;42.122;24.746;2023-06-14T13:32:44;99132.94;;;32.52;49.82
2675;BME280;1347;42.122;24.746;2023-06-14T13:35:11;99130.22;;;32.05;51.44
2675;BME280;1347;42.122;24.746;2023-06-14T13:37:38;99127.00;;;31.27;53.25
2675;BME280;1347;42.122;24.746;2023-06-14T13:40:06;99122.41;;;31.18;54.43
2675;BME280;1347;42.122;24.746;2023-06-14T13:42:33;99119.41;;;30.77;55.56